createdAt,value
2023-01-05T00:01:14.697Z,9.87
2023-01-05T00:04:19.959Z,9.84
2023-01-05T00:07:23.072Z,9.82
2023-01-05T00:10:43.689Z,9.86
2023-01-05T00:14:04.205Z,9.93
2023-01-05T00:17:26.442Z,9.95
2023-01-05T00:20:49.012Z,9.93
2023-01-05T00:23:52.049Z,9.88
2023-01-05T00:26:55.082Z,9.93
2023-01-05T00:29:59.287Z,10.01
2023-01-05T00:33:02.275Z,9.93
2023-01-05T00:36:12.189Z,9.99
2023-01-05T00:39:15.349Z,10.05
2023-01-05T00:42:18.598Z,10.06
2023-01-05T00:45:22.083Z,10.07
2023-01-05T00:48:25.459Z,10.07
2023-01-05T00:51:29.801Z,10.06
2023-01-05T00:54:33.076Z,10.10
2023-01-05T00:57:36.899Z,10.14
2023-01-05T01:00:47.366Z,10.11
2023-01-05T01:03:50.871Z,10.09
2023-01-05T01:06:55.516Z,10.12
2023-01-05T01:09:58.614Z,10.09
2023-01-05T01:13:02.563Z,10.09
2023-01-05T01:16:09.695Z,10.06
2023-01-05T01:19:16.178Z,10.04
2023-01-05T01:22:20.651Z,10.13
2023-01-05T01:25:24.198Z,10.15
2023-01-05T01:28:27.332Z,10.13
2023-01-05T01:31:30.482Z,10.14
2023-01-05T01:34:34.388Z,10.10
2023-01-05T01:37:39.450Z,10.08
2023-01-05T01:40:45.160Z,10.14
2023-01-05T01:43:51.458Z,10.10
2023-01-05T01:46:56.771Z,10.10
2023-01-05T01:50:03.852Z,10.14
2023-01-05T01:53:15.910Z,10.14
2023-01-05T01:56:22.810Z,10.08
2023-01-05T01:59:27.114Z,10.06
2023-01-05T02:02:31.356Z,10.06
2023-01-05T02:05:37.157Z,10.06
2023-01-05T02:08:41.668Z,10.13
2023-01-05T02:11:56.366Z,10.14
2023-01-05T02:15:12.978Z,10.14
2023-01-05T02:18:41.487Z,10.15
2023-01-05T02:21:56.285Z,10.10
2023-01-05T02:25:30.603Z,10.14
2023-01-05T02:28:53.927Z,10.14
2023-01-05T02:32:04.877Z,10.10
2023-01-05T02:35:20.880Z,10.07
2023-01-05T02:38:34.635Z,10.08
2023-01-05T02:41:49.590Z,10.10
2023-01-05T02:44:53.095Z,10.07
2023-01-05T02:47:58.460Z,10.10
2023-01-05T02:51:07.439Z,10.15
2023-01-05T02:54:17.959Z,10.19
2023-01-05T02:57:47.018Z,10.17
2023-01-05T03:00:58.394Z,10.16
2023-01-05T03:04:13.775Z,10.16
2023-01-05T03:07:23.217Z,10.21
2023-01-05T03:10:44.285Z,10.20
2023-01-05T03:13:55.283Z,10.16
2023-01-05T03:17:00.735Z,10.12
2023-01-05T03:20:11.940Z,10.07
2023-01-05T03:23:36.735Z,10.11
2023-01-05T03:26:59.385Z,10.12
2023-01-05T03:30:22.525Z,10.11
2023-01-05T03:33:54.704Z,10.17
2023-01-05T03:37:04.843Z,10.12
2023-01-05T03:40:14.829Z,10.13
2023-01-05T03:43:19.656Z,10.15
2023-01-05T03:46:24.686Z,10.18
2023-01-05T03:49:29.342Z,10.18
2023-01-05T03:52:36.316Z,10.22
2023-01-05T03:55:39.483Z,10.24
2023-01-05T03:58:43.571Z,10.22
2023-01-05T04:01:46.776Z,10.21
2023-01-05T04:04:51.215Z,10.17
2023-01-05T04:07:55.825Z,10.15
2023-01-05T04:10:59.048Z,10.14
2023-01-05T04:14:02.838Z,10.14
2023-01-05T04:17:05.960Z,10.17
2023-01-05T04:20:10.501Z,10.25
2023-01-05T04:23:15.474Z,10.21
2023-01-05T04:26:18.811Z,10.19
2023-01-05T04:29:25.361Z,10.19
2023-01-05T04:32:33.693Z,10.09
2023-01-05T04:35:43.339Z,9.89
2023-01-05T04:38:50.661Z,9.74
2023-01-05T04:41:55.190Z,9.70
2023-01-05T04:44:58.966Z,9.65
2023-01-05T04:48:03.652Z,9.54
2023-01-05T04:51:07.355Z,9.62
2023-01-05T04:54:20.304Z,9.74
2023-01-05T04:57:25.569Z,9.79
2023-01-05T05:00:31.562Z,9.85
2023-01-05T05:03:35.827Z,9.75
2023-01-05T05:06:41.731Z,9.70
2023-01-05T05:09:46.282Z,9.72
2023-01-05T05:12:49.576Z,9.69
2023-01-05T05:15:52.832Z,9.65
2023-01-05T05:18:56.074Z,9.62
2023-01-05T05:22:02.199Z,9.63
2023-01-05T05:25:08.929Z,9.55
2023-01-05T05:28:15.725Z,9.53
2023-01-05T05:31:19.018Z,9.47
2023-01-05T05:34:22.455Z,9.44
2023-01-05T05:37:25.542Z,9.38
2023-01-05T05:40:30.183Z,9.37
2023-01-05T05:43:33.295Z,9.36
2023-01-05T05:46:36.562Z,9.36
2023-01-05T05:49:39.776Z,9.35
2023-01-05T05:52:43.177Z,9.40
2023-01-05T05:55:51.133Z,9.41
2023-01-05T05:59:00.799Z,9.41
2023-01-05T06:02:04.671Z,9.38
2023-01-05T06:05:09.110Z,9.41
2023-01-05T06:08:12.152Z,9.33
2023-01-05T06:11:16.641Z,9.33
2023-01-05T06:14:19.938Z,9.26
2023-01-05T06:17:23.940Z,9.17
2023-01-05T06:20:26.984Z,9.08
2023-01-05T06:23:30.260Z,8.98
2023-01-05T06:26:34.652Z,8.88
2023-01-05T06:29:37.687Z,8.80
2023-01-05T06:32:40.770Z,8.76
2023-01-05T06:35:43.879Z,8.73
2023-01-05T06:38:47.000Z,8.65
2023-01-05T06:41:51.345Z,8.70
2023-01-05T06:44:54.827Z,8.74
2023-01-05T06:47:58.985Z,8.95
2023-01-05T06:51:02.434Z,8.96
2023-01-05T06:54:05.791Z,9.01
2023-01-05T06:57:10.599Z,9.12
2023-01-05T07:00:18.942Z,9.08
2023-01-05T07:03:26.962Z,9.08
2023-01-05T07:06:30.403Z,9.13
2023-01-05T07:09:33.826Z,9.13
2023-01-05T07:12:38.562Z,9.15
2023-01-05T07:15:41.956Z,9.20
2023-01-05T07:18:45.142Z,9.13
2023-01-05T07:21:53.239Z,9.12
2023-01-05T07:24:59.754Z,9.10
2023-01-05T07:28:04.867Z,9.19
2023-01-05T07:31:08.516Z,9.15
2023-01-05T07:34:12.225Z,9.17
2023-01-05T07:37:18.203Z,9.15
2023-01-05T07:40:21.316Z,9.07
2023-01-05T07:43:25.767Z,9.05
2023-01-05T07:46:28.935Z,9.01
2023-01-05T07:49:32.218Z,8.98
2023-01-05T07:52:35.361Z,9.05
2023-01-05T07:55:38.827Z,9.00
2023-01-05T07:58:43.877Z,8.91
2023-01-05T08:01:47.160Z,8.86
2023-01-05T08:04:50.363Z,8.82
2023-01-05T08:07:53.818Z,8.81
2023-01-05T08:10:56.958Z,8.81
2023-01-05T08:14:02.668Z,8.88
2023-01-05T08:17:05.976Z,8.87
2023-01-05T08:20:10.692Z,8.84
2023-01-05T08:23:14.122Z,8.86
2023-01-05T08:26:29.451Z,8.91
2023-01-05T08:29:33.950Z,8.86
2023-01-05T08:32:37.451Z,8.80
2023-01-05T08:35:45.695Z,8.79
2023-01-05T08:38:52.002Z,8.84
2023-01-05T08:42:02.465Z,8.86
2023-01-05T08:45:10.161Z,8.83
2023-01-05T08:48:13.252Z,8.83
2023-01-05T08:51:16.539Z,8.89
2023-01-05T08:54:19.642Z,8.85
2023-01-05T08:57:22.681Z,8.82
2023-01-05T09:00:27.160Z,8.83
2023-01-05T09:03:30.294Z,8.82
2023-01-05T09:06:36.814Z,8.76
2023-01-05T09:09:40.131Z,8.71
2023-01-05T09:12:43.229Z,8.75
2023-01-05T09:15:47.585Z,8.75
2023-01-05T09:18:51.582Z,8.71
2023-01-05T09:21:54.703Z,8.76
2023-01-05T09:24:57.887Z,8.77
2023-01-05T09:28:01.004Z,8.79
2023-01-05T09:31:10.183Z,8.80
2023-01-05T09:34:13.425Z,8.79
2023-01-05T09:37:16.535Z,8.84
2023-01-05T09:40:19.898Z,8.78
2023-01-05T09:43:28.549Z,8.73
2023-01-05T09:46:37.479Z,8.90
2023-01-05T09:49:41.837Z,9.02
2023-01-05T09:52:44.956Z,9.05
2023-01-05T09:55:49.362Z,9.09
2023-01-05T09:58:54.280Z,9.18
2023-01-05T10:02:02.492Z,9.21
2023-01-05T10:05:07.958Z,9.25
2023-01-05T10:08:20.328Z,9.24
2023-01-05T10:11:48.733Z,9.26
2023-01-05T10:14:57.630Z,9.26
2023-01-05T10:18:10.632Z,9.26
2023-01-05T10:21:22.452Z,9.23
2023-01-05T10:24:39.517Z,9.27
2023-01-05T10:27:56.515Z,9.33
2023-01-05T10:31:03.097Z,9.27
2023-01-05T10:34:21.483Z,9.32
2023-01-05T10:37:53.555Z,9.33
2023-01-05T10:41:06.917Z,9.37
2023-01-05T10:44:52.944Z,9.33
2023-01-05T10:47:58.170Z,9.36
2023-01-05T10:51:03.670Z,9.39
2023-01-05T10:54:07.567Z,9.37
2023-01-05T10:57:41.025Z,9.38
2023-01-05T11:00:44.528Z,9.43
2023-01-05T11:04:26.547Z,9.43
2023-01-05T11:07:15.153Z,9.44
2023-01-05T11:10:32.558Z,9.45
2023-01-05T11:13:39.097Z,9.39
2023-01-05T11:16:51.636Z,9.41
2023-01-05T11:19:57.309Z,9.39
2023-01-05T11:23:01.729Z,9.36
2023-01-05T11:26:23.616Z,9.36
2023-01-05T11:29:27.100Z,9.40
2023-01-05T11:32:32.384Z,9.37
2023-01-05T11:35:39.547Z,9.33
2023-01-05T11:38:44.020Z,9.30
2023-01-05T11:41:47.238Z,9.37
2023-01-05T11:44:53.580Z,9.42
2023-01-05T11:47:58.769Z,9.45
2023-01-05T11:51:02.814Z,9.43
2023-01-05T11:54:27.285Z,9.42
2023-01-05T11:57:30.350Z,9.42
2023-01-05T12:00:40.165Z,9.36
2023-01-05T12:04:02.152Z,9.39
2023-01-05T12:07:18.445Z,9.55
2023-01-05T12:10:46.920Z,9.62
2023-01-05T12:14:11.778Z,9.60
2023-01-05T12:17:16.894Z,9.60
2023-01-05T12:20:57.622Z,9.55
2023-01-05T12:24:44.248Z,9.67
2023-01-05T12:28:40.900Z,9.66
2023-01-05T12:36:59.749Z,9.80
2023-01-05T12:40:33.345Z,9.72
2023-01-05T12:43:48.181Z,9.67
2023-01-05T12:47:09.817Z,9.65
2023-01-05T12:50:26.362Z,9.63
2023-01-05T12:53:42.999Z,9.61
2023-01-05T12:56:52.685Z,9.58
2023-01-05T13:00:05.656Z,9.55
2023-01-05T13:03:17.910Z,9.55
2023-01-05T13:06:24.473Z,9.50
2023-01-05T13:09:32.301Z,9.51
2023-01-05T13:12:36.973Z,9.49
2023-01-05T13:16:00.024Z,9.40
2023-01-05T13:19:07.811Z,9.48
2023-01-05T13:22:20.273Z,9.54
2023-01-05T13:25:26.355Z,9.52
2023-01-05T13:28:31.421Z,9.49
2023-01-05T13:32:05.747Z,9.42
2023-01-05T13:35:31.038Z,9.38
2023-01-05T13:39:19.360Z,9.33
2023-01-05T13:42:54.245Z,9.21
2023-01-05T13:46:12.485Z,9.19
2023-01-05T13:49:45.712Z,9.11
2023-01-05T13:53:06.802Z,9.05
2023-01-05T13:56:19.816Z,8.97
2023-01-05T13:59:35.177Z,8.93
2023-01-05T14:02:46.467Z,8.83
2023-01-05T14:05:57.539Z,8.72
2023-01-05T14:12:44.573Z,8.63
2023-01-05T14:15:47.604Z,8.57
2023-01-05T14:18:52.756Z,8.51
2023-01-05T14:22:23.493Z,8.45
2023-01-05T14:25:49.407Z,8.40
2023-01-05T14:28:52.503Z,8.38
2023-01-05T14:31:55.614Z,8.28
2023-01-05T14:35:06.351Z,8.22
2023-01-05T14:38:21.104Z,8.16
2023-01-05T14:41:26.981Z,8.11
2023-01-05T14:44:36.039Z,8.10
2023-01-05T14:47:44.528Z,8.13
2023-01-05T14:50:47.735Z,8.06
2023-01-05T14:53:54.795Z,8.00
2023-01-05T14:57:31.010Z,7.99
2023-01-05T15:00:57.747Z,7.93
2023-01-05T15:04:06.696Z,7.87
2023-01-05T15:07:26.226Z,7.83
2023-01-05T15:10:58.629Z,7.78
2023-01-05T15:14:35.011Z,7.74
2023-01-05T15:18:04.378Z,7.73
2023-01-05T15:21:44.455Z,7.69
2023-01-05T15:25:11.803Z,7.64
2023-01-05T15:29:06.625Z,7.64
2023-01-05T15:32:17.249Z,7.64
2023-01-05T15:35:30.238Z,7.63
2023-01-05T15:38:47.464Z,7.60
2023-01-05T15:41:56.197Z,7.61
2023-01-05T15:45:00.842Z,7.58
2023-01-05T15:48:14.111Z,7.54
2023-01-05T15:51:25.576Z,7.52
2023-01-05T15:54:46.638Z,7.47
2023-01-05T15:57:55.988Z,7.40
2023-01-05T16:01:07.195Z,7.37
2023-01-05T16:04:14.917Z,7.36
2023-01-05T16:07:18.086Z,7.36
2023-01-05T16:10:25.341Z,7.30
2023-01-05T16:13:35.663Z,7.24
2023-01-05T16:16:54.411Z,7.21
2023-01-05T16:20:02.045Z,7.18
2023-01-05T16:23:09.204Z,7.18
2023-01-05T16:26:17.701Z,7.14
2023-01-05T16:29:33.781Z,7.08
2023-01-05T16:32:41.758Z,7.08
2023-01-05T16:35:54.912Z,7.06
2023-01-05T16:39:16.966Z,7.00
2023-01-05T16:42:40.834Z,7.04
2023-01-05T16:45:44.334Z,7.03
2023-01-05T16:48:52.979Z,7.01
2023-01-05T16:51:57.670Z,7.01
2023-01-05T16:55:28.323Z,7.06
2023-01-05T16:58:38.585Z,7.07
2023-01-05T17:01:45.338Z,7.05
2023-01-05T17:04:50.158Z,7.08
2023-01-05T17:08:07.067Z,7.08
2023-01-05T17:11:12.698Z,7.09
2023-01-05T17:14:18.148Z,7.08
2023-01-05T17:17:21.249Z,7.05
2023-01-05T17:20:33.059Z,7.02
2023-01-05T17:23:42.299Z,6.96
2023-01-05T17:26:46.163Z,6.96
2023-01-05T17:29:52.162Z,6.97
2023-01-05T17:32:56.009Z,6.94
2023-01-05T17:36:01.733Z,6.93
2023-01-05T17:39:05.419Z,6.86
2023-01-05T17:42:27.437Z,6.90
2023-01-05T17:45:30.995Z,6.92
2023-01-05T17:48:34.437Z,6.92
2023-01-05T17:51:38.857Z,6.88
2023-01-05T17:54:42.427Z,6.90
2023-01-05T17:57:45.734Z,6.90
2023-01-05T18:00:51.826Z,6.84
2023-01-05T18:03:54.840Z,6.79
2023-01-05T18:07:00.942Z,6.79
2023-01-05T18:10:05.724Z,6.77
2023-01-05T18:13:10.227Z,6.74
2023-01-05T18:16:15.055Z,6.72
2023-01-05T18:19:18.093Z,6.71
2023-01-05T18:22:22.645Z,6.68
2023-01-05T18:25:26.773Z,6.67
2023-01-05T18:28:30.229Z,6.63
2023-01-05T18:31:34.913Z,6.62
2023-01-05T18:34:40.241Z,6.62
2023-01-05T18:37:45.393Z,6.60
2023-01-05T18:40:49.853Z,6.59
2023-01-05T18:43:53.097Z,6.56
2023-01-05T18:46:56.210Z,6.52
2023-01-05T18:50:00.042Z,6.54
2023-01-05T18:53:06.497Z,6.50
2023-01-05T18:56:12.274Z,6.46
2023-01-05T18:59:16.172Z,6.44
2023-01-05T19:02:19.553Z,6.44
2023-01-05T19:05:22.702Z,6.44
2023-01-05T19:08:27.078Z,6.44
2023-01-05T19:11:30.220Z,6.43
2023-01-05T19:14:33.360Z,6.41
2023-01-05T19:17:36.544Z,6.41
2023-01-05T19:20:39.718Z,6.39
2023-01-05T19:23:44.222Z,6.37
2023-01-05T19:26:48.862Z,6.32
2023-01-05T19:29:51.901Z,6.37
2023-01-05T19:32:55.233Z,6.31
2023-01-05T19:36:04.024Z,6.31
2023-01-05T19:39:21.268Z,6.30
2023-01-05T19:42:24.326Z,6.23
2023-01-05T19:45:27.483Z,6.23
2023-01-05T19:48:34.612Z,6.23
2023-01-05T19:51:39.373Z,6.13
2023-01-05T19:54:44.248Z,6.07
2023-01-05T19:57:47.266Z,6.04
2023-01-05T20:00:50.812Z,6.00
2023-01-05T20:03:55.621Z,5.96
2023-01-05T20:06:59.073Z,5.94
2023-01-05T20:10:03.855Z,5.92
2023-01-05T20:13:10.107Z,5.91
2023-01-05T20:16:14.681Z,5.81
2023-01-05T20:19:19.501Z,5.79
2023-01-05T20:22:23.331Z,5.72
2023-01-05T20:25:30.150Z,5.64
2023-01-05T20:28:33.443Z,5.64
2023-01-05T20:31:40.683Z,5.57
2023-01-05T20:34:46.039Z,5.51
2023-01-05T20:37:49.010Z,5.47
2023-01-05T20:40:53.482Z,5.40
2023-01-05T20:43:58.030Z,5.41
2023-01-05T20:47:04.357Z,5.38
2023-01-05T20:50:08.761Z,5.38
2023-01-05T20:53:11.993Z,5.37
2023-01-05T20:56:19.253Z,5.38
2023-01-05T20:59:27.167Z,5.39
2023-01-05T21:02:30.301Z,5.39
2023-01-05T21:05:33.421Z,5.39
2023-01-05T21:08:37.643Z,5.41
2023-01-05T21:11:42.764Z,5.43
2023-01-05T21:14:45.873Z,5.44
2023-01-05T21:17:48.911Z,5.41
2023-01-05T21:20:53.060Z,5.39
2023-01-05T21:23:56.998Z,5.36
2023-01-05T21:27:01.368Z,5.31
2023-01-05T21:30:05.622Z,5.26
2023-01-05T21:33:08.713Z,5.17
2023-01-05T21:36:18.538Z,5.14
2023-01-05T21:39:25.074Z,5.11
2023-01-05T21:42:42.632Z,5.08
2023-01-05T21:45:45.816Z,5.01
2023-01-05T21:48:48.905Z,4.92
2023-01-05T21:52:09.683Z,4.99
2023-01-05T21:55:30.236Z,5.03
2023-01-05T21:58:35.864Z,4.99
2023-01-05T22:01:40.292Z,4.97
2023-01-05T22:04:44.225Z,5.02
2023-01-05T22:07:47.509Z,5.03
2023-01-05T22:10:55.992Z,5.02
2023-01-05T22:14:00.669Z,5.05
2023-01-05T22:17:04.257Z,5.02
2023-01-05T22:20:08.639Z,4.98
2023-01-05T22:23:13.620Z,4.99
2023-01-05T22:26:19.925Z,5.01
2023-01-05T22:29:24.455Z,4.99
2023-01-05T22:32:27.468Z,4.99
2023-01-05T22:35:30.563Z,5.06
2023-01-05T22:38:36.408Z,4.95
2023-01-05T22:41:39.546Z,4.85
2023-01-05T22:44:44.035Z,4.89
2023-01-05T22:47:47.068Z,4.82
2023-01-05T22:50:50.079Z,4.84
2023-01-05T22:53:53.959Z,4.70
2023-01-05T22:56:57.040Z,4.73
2023-01-05T23:00:01.331Z,4.61
2023-01-05T23:03:06.325Z,4.50
2023-01-05T23:06:11.858Z,4.45
2023-01-05T23:09:17.651Z,4.29
2023-01-05T23:12:20.866Z,4.22
2023-01-05T23:15:25.526Z,4.12
2023-01-05T23:18:28.902Z,4.01
2023-01-05T23:21:32.127Z,3.93
2023-01-05T23:24:37.420Z,3.86
2023-01-05T23:27:40.439Z,3.77
2023-01-05T23:30:46.574Z,3.72
2023-01-05T23:33:50.309Z,3.72
2023-01-05T23:36:53.461Z,3.66
2023-01-05T23:39:56.505Z,3.57
2023-01-05T23:42:59.884Z,3.53
2023-01-05T23:46:07.685Z,3.49
2023-01-05T23:49:10.968Z,3.47
2023-01-05T23:52:17.306Z,3.48
2023-01-05T23:55:20.387Z,3.42
2023-01-05T23:58:23.357Z,3.39
